Terminal Aerodrome Forecast
Issued by NWS

Home | Current Version | Previous Version | Text Only | Print | Product List | Glossary On
Versions: 1 2 3 4 5 6 7 8 9 10 11 12 13 14 15 16 17 18 19
997
FTUS43 KAPX 191720
TAFTVC
TAF
KTVC 191720Z 1918/2018 21011KT P6SM BKN150 WS010/22035KT
     FM200500 24013KT P6SM BKN120 WS010/24040KT
     FM200600 24012KT P6SM BKN020 WS010/26035KT
     FM200800 25010KT P6SM BKN150 WS010/26035KT
     FM200900 25009KT P6SM BKN120
     FM201200 26009KT P6SM SCT020 BKN120=

USA.gov is the U.S. government's official web portal to all federal, state and local government web resources and services.